createdAt,value
2023-04-27T00:01:27.420Z,7.60
2023-04-27T00:04:00.611Z,7.60
2023-04-27T00:06:34.473Z,7.60
2023-04-27T00:09:07.871Z,7.60
2023-04-27T00:11:40.669Z,7.60
2023-04-27T00:14:13.593Z,7.60
2023-04-27T00:16:46.571Z,7.60
2023-04-27T00:19:19.423Z,7.60
2023-04-27T00:21:53.179Z,7.50
2023-04-27T00:24:26.581Z,7.50
2023-04-27T00:26:59.392Z,7.50
2023-04-27T00:29:32.216Z,7.50
2023-04-27T00:32:07.608Z,7.40
2023-04-27T00:34:40.599Z,7.50
2023-04-27T00:37:13.534Z,7.50
2023-04-27T00:39:46.314Z,7.50
2023-04-27T00:42:19.935Z,7.50
2023-04-27T00:45:00.744Z,7.50
2023-04-27T00:47:33.629Z,7.50
2023-04-27T00:50:10.335Z,7.50
2023-04-27T00:52:44.329Z,7.50
2023-04-27T00:55:17.066Z,7.50
2023-04-27T00:57:49.994Z,7.60
2023-04-27T01:00:22.877Z,7.60
2023-04-27T01:02:56.077Z,7.60
2023-04-27T01:05:30.691Z,7.60
2023-04-27T01:08:05.573Z,7.60
2023-04-27T01:10:38.329Z,7.60
2023-04-27T01:13:11.318Z,7.60
2023-04-27T01:15:44.113Z,7.60
2023-04-27T01:18:17.076Z,7.60
2023-04-27T01:20:50.428Z,7.60
2023-04-27T01:23:23.851Z,7.60
2023-04-27T01:25:56.834Z,7.60
2023-04-27T01:28:29.979Z,7.60
2023-04-27T01:31:03.555Z,7.60
2023-04-27T01:33:36.335Z,7.70
2023-04-27T01:36:09.605Z,7.70
2023-04-27T01:38:42.999Z,7.60
2023-04-27T01:41:18.548Z,7.70
2023-04-27T01:43:51.610Z,7.70
2023-04-27T01:46:24.540Z,7.70
2023-04-27T01:48:57.376Z,7.70
2023-04-27T01:51:30.157Z,7.70
2023-04-27T01:54:03.278Z,7.70
2023-04-27T01:56:36.286Z,7.70
2023-04-27T01:59:11.892Z,7.70
2023-04-27T02:01:44.997Z,7.70
2023-04-27T02:04:18.046Z,7.70
2023-04-27T02:06:51.175Z,7.70
2023-04-27T02:09:24.835Z,7.70
2023-04-27T02:11:57.584Z,7.70
2023-04-27T02:14:32.064Z,7.60
2023-04-27T02:17:05.078Z,7.60
2023-04-27T02:19:37.762Z,7.60
2023-04-27T02:22:12.538Z,7.60
2023-04-27T02:24:45.283Z,7.70
2023-04-27T02:27:18.561Z,7.70
2023-04-27T02:29:52.239Z,7.70
2023-04-27T02:32:25.768Z,7.60
2023-04-27T02:34:58.722Z,7.60
2023-04-27T02:37:34.331Z,7.60
2023-04-27T02:40:08.682Z,7.50
2023-04-27T02:42:41.536Z,7.50
2023-04-27T02:45:17.351Z,7.50
2023-04-27T02:47:51.031Z,7.50
2023-04-27T02:50:24.118Z,7.50
2023-04-27T02:52:57.340Z,7.50
2023-04-27T02:55:30.219Z,7.50
2023-04-27T02:58:03.957Z,7.40
2023-04-27T03:00:37.022Z,7.40
2023-04-27T03:03:11.597Z,7.40
2023-04-27T03:05:44.932Z,7.40
2023-04-27T03:08:17.856Z,7.40
2023-04-27T03:10:50.897Z,7.40
2023-04-27T03:13:23.669Z,7.40
2023-04-27T03:15:56.516Z,7.40
2023-04-27T03:18:29.222Z,7.40
2023-04-27T03:21:06.696Z,7.30
2023-04-27T03:23:40.113Z,7.30
2023-04-27T03:26:14.260Z,7.30
2023-04-27T03:28:47.334Z,7.20
2023-04-27T03:31:20.321Z,7.20
2023-04-27T03:33:53.096Z,7.20
2023-04-27T03:36:27.285Z,7.10
2023-04-27T03:38:59.992Z,7.10
2023-04-27T03:41:33.081Z,7.10
2023-04-27T03:44:07.291Z,7.10
2023-04-27T03:46:40.998Z,7.00
2023-04-27T03:49:14.230Z,7.00
2023-04-27T03:51:47.394Z,7.00
2023-04-27T03:54:21.312Z,7.00
2023-04-27T03:56:54.333Z,6.90
2023-04-27T03:59:29.886Z,6.90
2023-04-27T04:02:04.056Z,6.90
2023-04-27T04:04:37.344Z,6.80
2023-04-27T04:07:10.194Z,6.80
2023-04-27T04:09:44.904Z,6.80
2023-04-27T04:12:18.517Z,6.80
2023-04-27T04:14:51.397Z,6.80
2023-04-27T04:17:24.606Z,6.70
2023-04-27T04:19:57.510Z,6.70
2023-04-27T04:22:30.487Z,6.60
2023-04-27T04:25:04.446Z,6.60
2023-04-27T04:27:37.796Z,6.60
2023-04-27T04:30:11.989Z,6.50
2023-04-27T04:32:45.073Z,6.50
2023-04-27T04:35:19.705Z,6.40
2023-04-27T04:37:52.678Z,6.30
2023-04-27T04:40:27.290Z,6.30
2023-04-27T04:43:00.068Z,6.30
2023-04-27T04:45:33.294Z,6.30
2023-04-27T04:48:08.548Z,6.20
2023-04-27T04:50:42.027Z,6.20
2023-04-27T04:53:14.802Z,6.20
2023-04-27T04:55:48.172Z,6.20
2023-04-27T04:58:21.172Z,6.10
2023-04-27T05:00:54.193Z,6.20
2023-04-27T05:03:27.052Z,6.10
2023-04-27T05:06:00.034Z,6.10
2023-04-27T05:08:32.903Z,6.20
2023-04-27T05:11:05.585Z,6.20
2023-04-27T05:13:38.772Z,6.20
2023-04-27T05:16:11.696Z,6.20
2023-04-27T05:18:44.708Z,6.30
2023-04-27T05:21:20.695Z,6.40
2023-04-27T05:23:53.626Z,6.40
2023-04-27T05:26:26.588Z,6.40
2023-04-27T05:28:59.299Z,6.50
2023-04-27T05:31:33.021Z,6.50
2023-04-27T05:34:05.823Z,6.60
2023-04-27T05:36:38.913Z,6.60
2023-04-27T05:39:11.753Z,6.70
2023-04-27T05:41:44.817Z,6.80
2023-04-27T05:44:17.495Z,6.90
2023-04-27T05:46:50.880Z,7.00
2023-04-27T05:49:24.602Z,7.20
2023-04-27T05:51:59.620Z,7.30
2023-04-27T05:54:32.365Z,7.50
2023-04-27T05:57:05.654Z,7.60
2023-04-27T05:59:38.450Z,7.60
2023-04-27T06:02:11.422Z,7.70
2023-04-27T06:04:44.712Z,7.80
2023-04-27T06:07:17.540Z,7.90
2023-04-27T06:09:50.744Z,7.90
2023-04-27T06:12:23.450Z,8.00
2023-04-27T06:14:57.343Z,8.10
2023-04-27T06:17:30.303Z,8.10
2023-04-27T06:20:06.835Z,8.20
2023-04-27T06:22:39.880Z,8.20
2023-04-27T06:25:13.074Z,8.20
2023-04-27T06:27:46.199Z,8.30
2023-04-27T06:30:18.912Z,8.40
2023-04-27T06:32:52.443Z,8.60
2023-04-27T06:35:26.009Z,8.70
2023-04-27T06:37:59.386Z,8.70
2023-04-27T06:40:32.729Z,8.80
2023-04-27T06:43:05.512Z,8.80
2023-04-27T06:45:38.597Z,8.90
2023-04-27T06:48:11.758Z,9.00
2023-04-27T06:50:44.909Z,9.10
2023-04-27T06:53:17.695Z,9.10
2023-04-27T06:55:51.169Z,9.10
2023-04-27T06:58:24.138Z,9.20
2023-04-27T07:00:57.378Z,9.10
2023-04-27T07:03:31.574Z,9.20
2023-04-27T07:06:04.593Z,9.20
2023-04-27T07:08:37.686Z,9.30
2023-04-27T07:11:10.557Z,9.40
2023-04-27T07:13:43.710Z,9.50
2023-04-27T07:16:16.873Z,9.60
2023-04-27T07:18:49.609Z,9.70
2023-04-27T07:21:22.839Z,9.70
2023-04-27T07:23:56.213Z,9.90
2023-04-27T07:26:29.451Z,10.20
2023-04-27T07:29:08.305Z,10.50
2023-04-27T07:31:48.156Z,10.80
2023-04-27T07:34:21.842Z,10.80
2023-04-27T07:36:54.760Z,10.80
2023-04-27T07:39:27.857Z,10.90
2023-04-27T07:42:00.953Z,10.90
2023-04-27T07:44:34.210Z,10.80
2023-04-27T07:47:08.270Z,10.90
2023-04-27T07:49:41.297Z,11.00
2023-04-27T07:52:14.397Z,11.10
2023-04-27T07:54:47.434Z,11.30
2023-04-27T07:57:20.601Z,11.60
2023-04-27T07:59:53.799Z,11.70
2023-04-27T08:02:31.857Z,12.00
2023-04-27T08:05:05.490Z,12.00
2023-04-27T08:07:44.173Z,12.10
2023-04-27T08:10:18.148Z,12.10
2023-04-27T08:12:51.144Z,12.30
2023-04-27T08:15:23.973Z,12.30
2023-04-27T08:17:56.771Z,12.50
2023-04-27T08:20:29.939Z,12.60
2023-04-27T08:23:02.953Z,12.80
2023-04-27T08:25:38.806Z,12.80
2023-04-27T08:28:12.683Z,12.90
2023-04-27T08:30:45.800Z,12.90
2023-04-27T08:33:18.819Z,12.90
2023-04-27T08:35:54.728Z,12.90
2023-04-27T08:38:27.499Z,12.90
2023-04-27T08:41:07.614Z,12.80
2023-04-27T08:43:52.498Z,12.90
2023-04-27T08:46:28.928Z,13.20
2023-04-27T08:49:02.130Z,13.50
2023-04-27T08:51:35.690Z,13.60
2023-04-27T08:54:08.746Z,13.70
2023-04-27T08:56:41.768Z,13.60
2023-04-27T08:59:16.929Z,13.90
2023-04-27T09:01:51.018Z,14.00
2023-04-27T09:04:24.363Z,14.00
2023-04-27T09:06:57.526Z,14.00
2023-04-27T09:09:30.667Z,14.20
2023-04-27T09:12:20.967Z,14.40
2023-04-27T09:15:01.032Z,14.50
2023-04-27T09:17:34.017Z,14.50
2023-04-27T09:20:13.648Z,14.60
2023-04-27T09:22:48.561Z,14.70
2023-04-27T09:25:32.053Z,15.00
2023-04-27T09:28:04.785Z,15.00
2023-04-27T09:30:38.116Z,15.20
2023-04-27T09:33:10.989Z,15.30
2023-04-27T09:35:46.929Z,15.40
2023-04-27T09:38:21.060Z,15.40
2023-04-27T09:40:55.439Z,15.50
2023-04-27T09:43:29.816Z,15.60
2023-04-27T09:46:23.080Z,15.70
2023-04-27T09:48:57.732Z,15.80
2023-04-27T09:51:31.781Z,15.90
2023-04-27T09:54:05.433Z,16.00
2023-04-27T09:56:56.616Z,16.30
2023-04-27T09:59:58.511Z,16.20
2023-04-27T10:02:53.298Z,16.30
2023-04-27T10:05:51.532Z,16.60
2023-04-27T10:08:24.861Z,16.60
2023-04-27T10:10:58.837Z,16.70
2023-04-27T10:13:31.714Z,16.60
2023-04-27T10:16:18.050Z,16.50
2023-04-27T10:18:55.357Z,16.60
2023-04-27T10:21:28.504Z,16.90
2023-04-27T10:24:09.253Z,17.20
2023-04-27T10:26:47.329Z,17.30
2023-04-27T10:29:20.652Z,17.40
2023-04-27T10:31:54.795Z,17.50
2023-04-27T10:34:28.168Z,17.60
2023-04-27T10:37:11.949Z,17.60
2023-04-27T10:39:49.418Z,17.60
2023-04-27T10:42:28.529Z,17.60
2023-04-27T10:45:01.579Z,17.60
2023-04-27T10:47:43.189Z,17.80
2023-04-27T10:50:16.933Z,17.80
2023-04-27T10:52:50.234Z,17.80
2023-04-27T10:55:23.643Z,17.90
2023-04-27T10:57:57.827Z,18.00
2023-04-27T11:00:37.294Z,18.00
2023-04-27T11:03:23.181Z,18.10
2023-04-27T11:06:02.397Z,17.90
2023-04-27T11:08:44.862Z,18.10
2023-04-27T11:11:18.081Z,18.30
2023-04-27T11:13:52.764Z,18.60
2023-04-27T11:16:25.827Z,18.80
2023-04-27T11:19:05.393Z,18.80
2023-04-27T11:21:38.629Z,18.80
2023-04-27T11:24:13.856Z,18.90
2023-04-27T11:26:53.079Z,18.90
2023-04-27T11:29:25.931Z,18.90
2023-04-27T11:31:59.087Z,18.80
2023-04-27T11:34:36.922Z,18.80
2023-04-27T11:39:46.239Z,18.60
2023-04-27T11:42:22.206Z,18.50
2023-04-27T11:45:01.201Z,18.50
2023-04-27T11:47:36.148Z,18.70
2023-04-27T11:50:09.719Z,18.60
2023-04-27T11:52:42.555Z,18.70
2023-04-27T11:55:18.600Z,18.90
2023-04-27T11:57:57.974Z,18.60
2023-04-27T12:00:30.866Z,18.50
2023-04-27T12:03:03.989Z,18.50
2023-04-27T12:05:47.543Z,18.80
2023-04-27T12:08:21.082Z,19.00
2023-04-27T12:10:53.916Z,19.30
2023-04-27T12:13:27.353Z,19.40
2023-04-27T12:16:01.081Z,19.30
2023-04-27T12:18:34.498Z,19.70
2023-04-27T12:21:08.560Z,19.90
2023-04-27T12:23:42.124Z,20.00
2023-04-27T12:26:15.502Z,20.00
2023-04-27T12:28:48.589Z,19.80
2023-04-27T12:31:27.690Z,19.70
2023-04-27T12:34:01.105Z,19.60
2023-04-27T12:36:33.840Z,19.50
2023-04-27T12:39:26.961Z,19.40
2023-04-27T12:41:59.987Z,19.40
2023-04-27T12:44:32.734Z,19.20
2023-04-27T12:47:05.837Z,19.00
2023-04-27T12:49:38.939Z,18.80
2023-04-27T12:52:11.723Z,18.90
2023-04-27T12:54:44.449Z,18.70
2023-04-27T12:57:17.284Z,18.60
2023-04-27T12:59:50.281Z,18.50
2023-04-27T13:02:23.303Z,18.40
2023-04-27T13:04:56.624Z,18.50
2023-04-27T13:07:30.179Z,18.60
2023-04-27T13:10:03.603Z,18.70
2023-04-27T13:12:36.443Z,18.90
2023-04-27T13:15:10.132Z,19.00
2023-04-27T13:17:43.825Z,18.90
2023-04-27T13:20:17.110Z,18.90
2023-04-27T13:22:50.100Z,18.90
2023-04-27T13:25:23.884Z,18.80
2023-04-27T13:27:58.191Z,18.80
2023-04-27T13:30:32.623Z,18.70
2023-04-27T13:33:21.206Z,18.70
2023-04-27T13:35:55.418Z,18.70
2023-04-27T13:38:28.950Z,18.70
2023-04-27T13:41:01.917Z,18.80
2023-04-27T13:43:34.689Z,18.80
2023-04-27T13:46:07.543Z,18.80
2023-04-27T13:48:40.898Z,18.80
2023-04-27T13:51:13.830Z,18.70
2023-04-27T13:53:46.895Z,18.50
2023-04-27T13:56:19.857Z,18.50
2023-04-27T13:58:52.755Z,18.20
2023-04-27T14:01:26.838Z,18.20
2023-04-27T14:04:00.041Z,18.00
2023-04-27T14:06:32.961Z,17.80
2023-04-27T14:09:05.869Z,17.50
2023-04-27T14:11:52.523Z,17.30
2023-04-27T14:14:29.276Z,17.20
2023-04-27T14:17:02.507Z,17.10
2023-04-27T14:19:35.645Z,17.00
2023-04-27T14:22:09.731Z,17.00
2023-04-27T14:24:42.524Z,17.00
2023-04-27T14:27:16.367Z,17.00
2023-04-27T14:29:49.680Z,17.00
2023-04-27T14:32:23.000Z,17.10
2023-04-27T14:34:55.776Z,17.10
2023-04-27T14:37:28.701Z,17.20
2023-04-27T14:40:03.451Z,17.30
2023-04-27T14:42:38.313Z,17.30
2023-04-27T14:45:11.763Z,17.40
2023-04-27T14:47:44.592Z,17.40
2023-04-27T14:50:17.413Z,17.40
2023-04-27T14:52:50.385Z,17.40
2023-04-27T14:55:24.913Z,17.50
2023-04-27T14:57:57.652Z,17.50
2023-04-27T15:00:31.179Z,17.50
2023-04-27T15:03:04.087Z,17.50
2023-04-27T15:05:36.982Z,17.50
2023-04-27T15:08:10.058Z,17.40
2023-04-27T15:10:42.819Z,17.40
2023-04-27T15:13:15.927Z,17.30
2023-04-27T15:15:51.028Z,17.40
2023-04-27T15:18:24.569Z,17.40
2023-04-27T15:20:59.286Z,17.50
2023-04-27T15:23:33.924Z,17.60
2023-04-27T15:26:06.757Z,17.60
2023-04-27T15:28:39.766Z,17.50
2023-04-27T15:31:12.653Z,17.50
2023-04-27T15:33:45.679Z,17.50
2023-04-27T15:36:18.502Z,17.40
2023-04-27T15:38:52.096Z,17.50
2023-04-27T15:41:24.845Z,17.50
2023-04-27T15:43:57.939Z,17.50
2023-04-27T15:46:30.824Z,17.50
2023-04-27T15:49:04.004Z,17.60
2023-04-27T15:51:36.744Z,17.60
2023-04-27T15:54:09.732Z,17.50
2023-04-27T15:56:42.680Z,17.40
2023-04-27T15:59:15.998Z,17.30
2023-04-27T16:01:49.138Z,17.30
2023-04-27T16:04:22.417Z,17.20
2023-04-27T16:06:55.412Z,17.20
2023-04-27T16:09:29.222Z,17.20
2023-04-27T16:12:03.664Z,17.20
2023-04-27T16:14:36.560Z,17.20
2023-04-27T16:17:09.519Z,17.30
2023-04-27T16:19:42.274Z,17.30
2023-04-27T16:22:15.249Z,17.30
2023-04-27T16:24:48.148Z,17.30
2023-04-27T16:27:21.267Z,17.20
2023-04-27T16:29:55.559Z,17.20
2023-04-27T16:32:28.680Z,17.10
2023-04-27T16:35:02.070Z,17.00
2023-04-27T16:37:34.997Z,17.00
2023-04-27T16:40:08.533Z,17.00
2023-04-27T16:42:41.493Z,17.00
2023-04-27T16:45:14.315Z,17.00
2023-04-27T16:47:47.794Z,16.90
2023-04-27T16:50:21.278Z,16.90
2023-04-27T16:52:54.170Z,17.00
2023-04-27T16:55:28.626Z,17.00
2023-04-27T16:58:01.908Z,17.10
2023-04-27T17:00:34.759Z,17.10
2023-04-27T17:03:07.585Z,17.10
2023-04-27T17:05:40.436Z,17.20
2023-04-27T17:08:13.667Z,17.20
2023-04-27T17:10:47.137Z,17.20
2023-04-27T17:13:20.163Z,17.20
2023-04-27T17:15:53.880Z,17.20
2023-04-27T17:18:27.211Z,17.10
2023-04-27T17:21:00.940Z,17.10
2023-04-27T17:23:34.073Z,17.10
2023-04-27T17:26:07.809Z,17.00
2023-04-27T17:28:40.758Z,17.00
2023-04-27T17:31:13.640Z,17.00
2023-04-27T17:33:46.427Z,17.00
2023-04-27T17:36:19.227Z,17.00
2023-04-27T17:38:51.980Z,16.90
2023-04-27T17:41:24.981Z,16.90
2023-04-27T17:43:58.984Z,16.90
2023-04-27T17:46:31.934Z,16.90
2023-04-27T17:49:04.941Z,16.80
2023-04-27T17:51:37.678Z,16.80
2023-04-27T17:54:11.663Z,16.70
2023-04-27T17:56:44.412Z,16.60
2023-04-27T17:59:17.480Z,16.60
2023-04-27T18:01:50.700Z,16.50
2023-04-27T18:04:24.841Z,16.50
2023-04-27T18:06:57.827Z,16.40
2023-04-27T18:09:33.094Z,16.40
2023-04-27T18:12:11.232Z,16.30
2023-04-27T18:14:44.780Z,16.30
2023-04-27T18:17:17.497Z,16.30
2023-04-27T18:20:00.934Z,16.20
2023-04-27T18:22:40.415Z,16.20
2023-04-27T18:25:13.539Z,16.20
2023-04-27T18:27:48.335Z,16.20
2023-04-27T18:30:21.917Z,16.10
2023-04-27T18:32:54.689Z,16.10
2023-04-27T18:35:27.812Z,16.10
2023-04-27T18:38:00.630Z,16.00
2023-04-27T18:40:36.191Z,16.00
2023-04-27T18:43:09.442Z,15.90
2023-04-27T18:45:42.178Z,15.90
2023-04-27T18:48:15.221Z,15.80
2023-04-27T18:50:49.533Z,15.80
2023-04-27T18:53:22.482Z,15.70
2023-04-27T18:55:55.521Z,15.70
2023-04-27T18:58:28.306Z,15.70
2023-04-27T19:01:01.405Z,15.60
2023-04-27T19:03:34.685Z,15.60
2023-04-27T19:06:07.526Z,15.60
2023-04-27T19:08:41.300Z,15.60
2023-04-27T19:11:14.027Z,15.60
2023-04-27T19:13:47.023Z,15.50
2023-04-27T19:16:19.869Z,15.50
2023-04-27T19:18:52.992Z,15.50
2023-04-27T19:21:25.750Z,15.50
2023-04-27T19:23:58.549Z,15.50
2023-04-27T19:26:31.511Z,15.50
2023-04-27T19:29:04.515Z,15.50
2023-04-27T19:31:37.342Z,15.50
2023-04-27T19:34:10.450Z,15.50
2023-04-27T19:36:43.141Z,15.50
2023-04-27T19:39:17.231Z,15.40
2023-04-27T19:41:50.239Z,15.40
2023-04-27T19:44:23.296Z,15.40
2023-04-27T19:46:56.252Z,15.40
2023-04-27T19:49:33.026Z,15.40
2023-04-27T19:52:07.757Z,15.40
2023-04-27T19:54:41.037Z,15.40
2023-04-27T19:57:13.964Z,15.30
2023-04-27T19:59:46.981Z,15.40
2023-04-27T20:02:19.805Z,15.30
2023-04-27T20:04:52.934Z,15.30
2023-04-27T20:07:26.285Z,15.30
2023-04-27T20:09:59.212Z,15.30
2023-04-27T20:12:47.994Z,15.20
2023-04-27T20:15:25.262Z,15.20
2023-04-27T20:17:58.178Z,15.20
2023-04-27T20:20:31.116Z,15.10
2023-04-27T20:23:03.994Z,15.10
2023-04-27T20:25:36.915Z,15.10
2023-04-27T20:28:09.905Z,15.10
2023-04-27T20:30:44.069Z,15.10
2023-04-27T20:33:17.878Z,15.10
2023-04-27T20:35:54.430Z,15.10
2023-04-27T20:38:29.055Z,15.00
2023-04-27T20:41:02.055Z,15.00
2023-04-27T20:43:35.365Z,15.00
2023-04-27T20:46:09.998Z,14.90
2023-04-27T20:48:42.785Z,14.90
2023-04-27T20:51:15.588Z,14.90
2023-04-27T20:53:48.437Z,14.80
2023-04-27T20:56:21.349Z,14.80
2023-04-27T20:58:54.126Z,14.80
2023-04-27T21:01:27.423Z,14.80
2023-04-27T21:04:00.850Z,14.70
2023-04-27T21:06:34.003Z,14.70
2023-04-27T21:09:06.685Z,14.70
2023-04-27T21:11:39.507Z,14.80
2023-04-27T21:14:12.494Z,14.70
2023-04-27T21:16:45.557Z,14.70
2023-04-27T21:19:18.334Z,14.70
2023-04-27T21:21:51.415Z,14.70
2023-04-27T21:24:24.890Z,14.70
2023-04-27T21:26:57.982Z,14.70
2023-04-27T21:29:30.972Z,14.70
2023-04-27T21:32:04.173Z,14.70
2023-04-27T21:34:37.162Z,14.70
2023-04-27T21:37:10.022Z,14.70
2023-04-27T21:39:42.942Z,14.70
2023-04-27T21:42:16.622Z,14.70
2023-04-27T21:44:49.348Z,14.70
2023-04-27T21:47:22.870Z,14.70
2023-04-27T21:49:55.770Z,14.70
2023-04-27T21:52:29.673Z,14.70
2023-04-27T21:55:03.226Z,14.60
2023-04-27T21:57:36.897Z,14.50
2023-04-27T22:00:13.758Z,14.50
2023-04-27T22:02:53.114Z,14.50
2023-04-27T22:05:29.143Z,14.50
2023-04-27T22:08:02.059Z,14.40
2023-04-27T22:10:36.336Z,14.40
2023-04-27T22:13:18.965Z,14.30
2023-04-27T22:15:52.501Z,14.20
2023-04-27T22:18:25.348Z,14.10
2023-04-27T22:20:58.254Z,13.90
2023-04-27T22:23:31.813Z,13.90
2023-04-27T22:26:05.555Z,13.80
2023-04-27T22:28:39.388Z,13.80
2023-04-27T22:31:12.349Z,13.80
2023-04-27T22:33:45.323Z,13.70
2023-04-27T22:36:18.207Z,13.60
2023-04-27T22:38:51.481Z,13.50
2023-04-27T22:41:24.187Z,13.40
2023-04-27T22:43:56.955Z,13.40
2023-04-27T22:46:29.738Z,13.40
2023-04-27T22:49:03.368Z,13.30
2023-04-27T22:51:36.798Z,13.30
2023-04-27T22:54:09.896Z,13.30
2023-04-27T22:56:42.619Z,13.30
2023-04-27T22:59:15.669Z,13.30
2023-04-27T23:01:51.708Z,13.40
2023-04-27T23:04:26.480Z,13.40
2023-04-27T23:06:59.984Z,13.40
2023-04-27T23:09:33.172Z,13.50
2023-04-27T23:12:07.794Z,13.50
2023-04-27T23:14:42.397Z,13.50
2023-04-27T23:17:15.578Z,13.40
2023-04-27T23:19:49.484Z,13.50
2023-04-27T23:22:22.281Z,13.40
2023-04-27T23:24:55.390Z,13.40
2023-04-27T23:27:28.892Z,13.50
2023-04-27T23:30:01.672Z,13.50
2023-04-27T23:32:36.911Z,13.50
2023-04-27T23:35:09.928Z,13.50
2023-04-27T23:37:43.163Z,13.40
2023-04-27T23:40:16.169Z,13.40
2023-04-27T23:42:50.930Z,13.40
2023-04-27T23:45:25.672Z,13.30
2023-04-27T23:48:00.156Z,13.20
2023-04-27T23:50:33.512Z,13.20
2023-04-27T23:53:06.287Z,13.20
2023-04-27T23:55:39.063Z,13.20
2023-04-27T23:58:12.123Z,13.10
